createdAt,value
2017-08-07T00:00:24.919Z,73.63
2017-08-07T00:01:26.744Z,73.34
2017-08-07T00:02:28.566Z,73.69
2017-08-07T00:03:30.450Z,73.88
2017-08-07T00:04:32.328Z,73.88
2017-08-07T00:05:34.215Z,73.97
2017-08-07T00:06:48.386Z,73.79
2017-08-07T00:07:50.270Z,73.79
2017-08-07T00:08:52.155Z,73.69
2017-08-07T00:09:54.038Z,73.69
2017-08-07T00:10:55.861Z,73.59
2017-08-07T00:11:57.685Z,73.88
2017-08-07T00:12:59.569Z,73.79
2017-08-07T00:14:01.451Z,73.97
2017-08-07T00:15:03.335Z,73.79
2017-08-07T00:16:17.502Z,73.88
2017-08-07T00:17:19.383Z,73.50
2017-08-07T00:18:21.266Z,73.79
2017-08-07T00:19:23.158Z,73.88
2017-08-07T00:20:24.982Z,74.16
2017-08-07T00:21:26.804Z,74.84
2017-08-07T00:22:28.686Z,75.02
2017-08-07T00:23:30.565Z,74.74
2017-08-07T00:24:32.450Z,74.74
2017-08-07T00:25:46.614Z,74.65
2017-08-07T00:26:48.494Z,74.65
2017-08-07T00:27:50.386Z,74.07
2017-08-07T00:28:52.268Z,74.36
2017-08-07T00:29:54.092Z,74.51
2017-08-07T00:30:55.913Z,74.74
2017-08-07T00:31:57.796Z,74.70
2017-08-07T00:32:59.677Z,74.74
2017-08-07T00:34:01.558Z,74.45
2017-08-07T00:35:15.716Z,74.45
2017-08-07T00:36:17.595Z,74.90
2017-08-07T00:37:19.490Z,74.45
2017-08-07T00:38:21.372Z,74.61
2017-08-07T00:39:23.199Z,74.70
2017-08-07T00:40:25.021Z,74.41
2017-08-07T00:41:26.903Z,74.51
2017-08-07T00:42:28.787Z,74.90
2017-08-07T00:43:30.666Z,75.09
2017-08-07T00:44:44.827Z,74.70
2017-08-07T00:45:46.707Z,74.99
2017-08-07T00:46:48.600Z,75.18
2017-08-07T00:47:50.482Z,74.41
2017-08-07T00:48:52.307Z,74.99
2017-08-07T00:49:54.129Z,74.99
2017-08-07T00:50:56.009Z,74.22
2017-08-07T00:51:57.889Z,75.18
2017-08-07T00:52:59.773Z,74.61
2017-08-07T00:54:13.944Z,74.61
2017-08-07T00:55:15.823Z,74.99
2017-08-07T00:56:17.706Z,75.18
2017-08-07T00:57:19.589Z,74.99
2017-08-07T00:58:21.414Z,75.27
2017-08-07T00:59:23.236Z,74.90
2017-08-07T01:00:25.118Z,74.99
2017-08-07T01:01:26.996Z,74.99
2017-08-07T01:02:28.881Z,74.99
2017-08-07T01:03:43.086Z,74.80
2017-08-07T01:04:44.966Z,74.70
2017-08-07T01:05:46.850Z,74.70
2017-08-07T01:06:48.730Z,74.61
2017-08-07T01:07:50.563Z,74.70
2017-08-07T01:08:52.399Z,74.99
2017-08-07T01:09:54.277Z,74.99
2017-08-07T01:10:56.158Z,74.80
2017-08-07T01:11:58.052Z,74.70
2017-08-07T01:13:12.210Z,74.70
2017-08-07T01:14:14.091Z,74.80
2017-08-07T01:15:15.976Z,74.80
2017-08-07T01:16:17.861Z,74.80
2017-08-07T01:17:19.679Z,74.61
2017-08-07T01:18:21.502Z,74.51
2017-08-07T01:19:23.384Z,75.09
2017-08-07T01:20:25.264Z,75.27
2017-08-07T01:21:27.144Z,75.27
2017-08-07T01:22:41.301Z,75.27
2017-08-07T01:23:43.180Z,75.18
2017-08-07T01:24:45.074Z,75.09
2017-08-07T01:25:46.957Z,75.27
2017-08-07T01:26:48.778Z,75.09
2017-08-07T01:27:50.612Z,75.27
2017-08-07T01:28:52.491Z,75.18
2017-08-07T01:29:54.371Z,75.27
2017-08-07T01:30:56.252Z,75.43
2017-08-07T01:32:10.410Z,75.18
2017-08-07T01:33:12.289Z,75.52
2017-08-07T01:34:14.181Z,75.43
2017-08-07T01:35:16.062Z,75.24
2017-08-07T01:36:17.885Z,75.43
2017-08-07T01:37:19.708Z,75.43
2017-08-07T01:38:21.590Z,75.62
2017-08-07T01:39:23.469Z,75.71
2017-08-07T01:40:25.356Z,75.52
2017-08-07T01:41:39.565Z,75.24
2017-08-07T01:42:41.445Z,76.10
2017-08-07T01:43:43.328Z,75.43
2017-08-07T01:44:45.209Z,75.34
2017-08-07T01:45:47.032Z,76.10
2017-08-07T01:46:48.854Z,76.10
2017-08-07T01:47:50.735Z,76.10
2017-08-07T01:48:52.614Z,75.91
2017-08-07T01:49:54.505Z,76.10
2017-08-07T01:51:08.663Z,76.10
2017-08-07T01:52:10.543Z,76.10
2017-08-07T01:53:12.428Z,75.71
2017-08-07T01:54:14.308Z,75.59
2017-08-07T01:55:16.129Z,76.29
2017-08-07T01:56:17.951Z,75.59
2017-08-07T01:57:19.837Z,75.49
2017-08-07T01:58:21.711Z,75.20
2017-08-07T01:59:23.592Z,75.39
2017-08-07T02:00:37.809Z,76.20
2017-08-07T02:01:39.695Z,76.16
2017-08-07T02:02:41.570Z,75.78
2017-08-07T02:03:43.450Z,76.16
2017-08-07T02:04:45.272Z,75.96
2017-08-07T02:05:47.102Z,75.78
2017-08-07T02:06:48.982Z,76.45
2017-08-07T02:07:50.860Z,76.64
2017-08-07T02:08:52.743Z,76.06
2017-08-07T02:10:06.902Z,76.25
2017-08-07T02:11:08.780Z,76.16
2017-08-07T02:12:10.672Z,76.16
2017-08-07T02:13:12.551Z,76.06
2017-08-07T02:14:14.384Z,75.78
2017-08-07T02:15:16.224Z,76.25
2017-08-07T02:16:18.085Z,75.59
2017-08-07T02:17:19.969Z,75.78
2017-08-07T02:18:21.847Z,76.35
2017-08-07T02:19:36.005Z,76.45
2017-08-07T02:20:37.888Z,76.25
2017-08-07T02:21:39.769Z,76.16
2017-08-07T02:22:41.649Z,76.16
2017-08-07T02:23:43.470Z,76.16
2017-08-07T02:24:45.293Z,76.16
2017-08-07T02:25:47.176Z,76.06
2017-08-07T02:26:49.055Z,75.78
2017-08-07T02:27:50.936Z,76.06
2017-08-07T02:29:05.093Z,76.54
2017-08-07T02:30:06.985Z,76.45
2017-08-07T02:31:08.858Z,76.92
2017-08-07T02:32:10.746Z,76.64
2017-08-07T02:33:12.559Z,76.64
2017-08-07T02:34:14.380Z,76.54
2017-08-07T02:35:16.259Z,76.92
2017-08-07T02:36:18.149Z,76.82
2017-08-07T02:37:20.032Z,76.82
2017-08-07T02:38:34.190Z,76.73
2017-08-07T02:39:36.074Z,77.21
2017-08-07T02:40:37.957Z,77.69
2017-08-07T02:41:39.840Z,77.40
2017-08-07T02:42:41.671Z,77.50
2017-08-07T02:43:43.487Z,77.30
2017-08-07T02:44:45.369Z,77.69
2017-08-07T02:45:47.246Z,77.59
2017-08-07T02:46:49.130Z,77.40
2017-08-07T02:48:03.288Z,77.21
2017-08-07T02:49:05.166Z,77.11
2017-08-07T02:50:07.047Z,77.45
2017-08-07T02:51:08.930Z,77.74
2017-08-07T02:52:10.748Z,77.97
2017-08-07T02:53:12.568Z,77.94
2017-08-07T02:54:14.447Z,77.74
2017-08-07T02:55:16.328Z,77.97
2017-08-07T02:56:18.209Z,77.97
2017-08-07T02:57:32.380Z,77.87
2017-08-07T02:58:34.258Z,77.50
2017-08-07T02:59:36.137Z,77.40
2017-08-07T03:00:38.019Z,77.30
2017-08-07T03:01:39.840Z,77.69
2017-08-07T03:02:41.660Z,77.40
2017-08-07T03:03:43.541Z,77.50
2017-08-07T03:04:45.422Z,77.45
2017-08-07T03:05:47.303Z,77.17
2017-08-07T03:07:01.475Z,77.74
2017-08-07T03:08:03.364Z,77.45
2017-08-07T03:09:05.238Z,77.74
2017-08-07T03:10:07.122Z,78.12
2017-08-07T03:11:08.939Z,78.60
2017-08-07T03:12:10.762Z,78.85
2017-08-07T03:13:12.652Z,79.17
2017-08-07T03:14:14.532Z,78.99
2017-08-07T03:15:16.417Z,78.89
2017-08-07T03:16:30.575Z,78.99
2017-08-07T03:17:32.456Z,78.51
2017-08-07T03:18:34.340Z,78.12
2017-08-07T03:19:36.224Z,78.31
2017-08-07T03:20:38.049Z,78.12
2017-08-07T03:21:39.871Z,77.74
2017-08-07T03:22:41.752Z,78.03
2017-08-07T03:23:43.632Z,77.94
2017-08-07T03:24:45.515Z,77.94
2017-08-07T03:25:59.673Z,78.12
2017-08-07T03:27:01.558Z,78.41
2017-08-07T03:28:03.438Z,78.41
2017-08-07T03:29:05.322Z,78.03
2017-08-07T03:30:07.153Z,77.74
2017-08-07T03:31:08.981Z,77.84
2017-08-07T03:32:10.862Z,78.12
2017-08-07T03:33:12.743Z,77.94
2017-08-07T03:34:14.627Z,78.03
2017-08-07T03:35:28.789Z,77.84
2017-08-07T03:36:30.668Z,78.03
2017-08-07T03:37:32.550Z,78.12
2017-08-07T03:38:34.436Z,77.94
2017-08-07T03:39:36.263Z,77.94
2017-08-07T03:40:38.087Z,77.94
2017-08-07T03:41:39.970Z,77.94
2017-08-07T03:42:41.853Z,77.84
2017-08-07T03:43:43.742Z,78.41
2017-08-07T03:44:57.904Z,78.28
2017-08-07T03:45:59.785Z,78.22
2017-08-07T03:47:01.671Z,78.28
2017-08-07T03:48:03.554Z,78.22
2017-08-07T03:49:05.381Z,78.41
2017-08-07T03:50:07.207Z,78.41
2017-08-07T03:51:09.089Z,78.31
2017-08-07T03:52:10.938Z,78.03
2017-08-07T03:53:12.799Z,78.22
2017-08-07T03:54:27.010Z,77.84
2017-08-07T03:55:28.890Z,78.03
2017-08-07T03:56:30.773Z,77.74
2017-08-07T03:57:32.656Z,77.84
2017-08-07T03:58:34.482Z,77.65
2017-08-07T03:59:36.309Z,77.26
2017-08-07T04:00:38.192Z,77.36
2017-08-07T04:01:40.085Z,77.55
2017-08-07T04:02:41.972Z,77.65
2017-08-07T04:03:56.133Z,77.36
2017-08-07T04:04:58.017Z,76.79
2017-08-07T04:05:59.901Z,76.88
2017-08-07T04:07:01.787Z,76.50
2017-08-07T04:08:03.613Z,76.50
2017-08-07T04:09:05.437Z,76.16
2017-08-07T04:10:07.324Z,75.59
2017-08-07T04:11:09.208Z,74.76
2017-08-07T04:12:11.092Z,73.55
2017-08-07T04:13:25.264Z,72.06
2017-08-07T04:14:27.165Z,71.20
2017-08-07T04:15:29.036Z,70.09
2017-08-07T04:16:30.920Z,68.97
2017-08-07T04:17:32.760Z,68.01
2017-08-07T04:18:34.587Z,67.38
2017-08-07T04:19:36.472Z,66.71
2017-08-07T04:20:38.368Z,65.78
2017-08-07T04:21:40.257Z,64.72
2017-08-07T04:22:54.421Z,64.09
2017-08-07T04:23:56.304Z,63.60
2017-08-07T04:24:58.201Z,62.68
2017-08-07T04:26:00.089Z,61.72
2017-08-07T04:27:01.927Z,61.33
2017-08-07T04:28:03.765Z,61.65
2017-08-07T04:29:05.647Z,61.17
2017-08-07T04:30:07.535Z,59.92
2017-08-07T04:31:09.423Z,59.66
2017-08-07T04:32:23.587Z,58.99
2017-08-07T04:33:25.473Z,58.61
2017-08-07T04:34:27.361Z,58.32
2017-08-07T04:35:29.249Z,57.75
2017-08-07T04:36:31.079Z,57.48
2017-08-07T04:37:32.910Z,57.48
2017-08-07T04:38:34.795Z,56.91
2017-08-07T04:39:36.683Z,56.26
2017-08-07T04:40:38.571Z,55.88
2017-08-07T04:41:52.748Z,55.78
2017-08-07T04:42:54.635Z,55.13
2017-08-07T04:43:56.522Z,55.04
2017-08-07T04:44:58.408Z,54.46
2017-08-07T04:46:00.251Z,54.10
2017-08-07T04:47:02.082Z,54.10
2017-08-07T04:48:03.969Z,53.81
2017-08-07T04:49:05.857Z,53.14
2017-08-07T04:50:07.751Z,53.05
2017-08-07T04:51:21.920Z,52.56
2017-08-07T04:52:23.809Z,52.37
2017-08-07T04:53:25.695Z,52.30
2017-08-07T04:54:27.583Z,52.20
2017-08-07T04:55:29.413Z,51.62
2017-08-07T04:56:31.242Z,51.53
2017-08-07T04:57:33.130Z,51.82
2017-08-07T04:58:35.027Z,51.36
2017-08-07T04:59:36.911Z,51.56
2017-08-07T05:00:51.075Z,51.07
2017-08-07T05:01:52.961Z,51.17
2017-08-07T05:02:54.863Z,50.88
2017-08-07T05:03:56.753Z,50.69
2017-08-07T05:04:58.583Z,50.59
2017-08-07T05:06:00.412Z,50.69
2017-08-07T05:07:02.301Z,50.49
2017-08-07T05:08:04.188Z,50.49
2017-08-07T05:09:06.089Z,50.21
2017-08-07T05:10:20.263Z,50.49
2017-08-07T05:11:22.139Z,50.78
2017-08-07T05:12:24.029Z,50.49
2017-08-07T05:13:25.922Z,50.40
2017-08-07T05:14:27.747Z,50.98
2017-08-07T05:15:29.576Z,51.65
2017-08-07T05:16:31.462Z,51.72
2017-08-07T05:17:33.412Z,51.53
2017-08-07T05:18:35.279Z,52.20
2017-08-07T05:19:49.455Z,52.30
2017-08-07T05:20:51.377Z,53.53
2017-08-07T05:21:53.274Z,53.53
2017-08-07T05:22:55.162Z,53.72
2017-08-07T05:23:56.996Z,54.08
2017-08-07T05:24:58.830Z,55.13
2017-08-07T05:26:00.711Z,55.23
2017-08-07T05:27:02.599Z,55.30
2017-08-07T05:28:04.487Z,55.78
2017-08-07T05:29:18.652Z,56.65
2017-08-07T05:30:20.541Z,57.00
2017-08-07T05:31:22.428Z,57.00
2017-08-07T05:32:24.314Z,57.97
2017-08-07T05:33:26.141Z,58.15
2017-08-07T05:34:27.975Z,58.32
2017-08-07T05:35:29.861Z,59.09
2017-08-07T05:36:31.760Z,59.19
2017-08-07T05:37:33.652Z,59.76
2017-08-07T05:38:47.817Z,59.95
2017-08-07T05:39:49.704Z,60.82
2017-08-07T05:40:51.592Z,61.20
2017-08-07T05:41:53.480Z,61.36
2017-08-07T05:42:55.311Z,61.75
2017-08-07T05:43:57.143Z,61.84
2017-08-07T05:44:59.032Z,62.13
2017-08-07T05:46:00.918Z,62.23
2017-08-07T05:47:02.808Z,62.71
2017-08-07T05:48:17.026Z,63.38
2017-08-07T05:49:18.912Z,63.57
2017-08-07T05:50:20.801Z,63.67
2017-08-07T05:51:22.688Z,64.22
2017-08-07T05:52:24.528Z,64.15
2017-08-07T05:53:26.356Z,64.53
2017-08-07T05:54:28.245Z,64.89
2017-08-07T05:55:30.149Z,64.59
2017-08-07T05:56:32.039Z,64.69
2017-08-07T05:57:46.207Z,65.17
2017-08-07T05:58:48.094Z,65.08
2017-08-07T05:59:49.985Z,65.08
2017-08-07T06:00:51.881Z,65.27
2017-08-07T06:01:53.707Z,65.56
2017-08-07T06:02:55.537Z,65.36
2017-08-07T06:03:57.425Z,65.56
2017-08-07T06:04:59.324Z,66.23
2017-08-07T06:06:01.227Z,65.84
2017-08-07T06:07:15.393Z,66.03
2017-08-07T06:08:17.280Z,66.33
2017-08-07T06:09:19.169Z,66.61
2017-08-07T06:10:21.070Z,66.33
2017-08-07T06:11:22.893Z,66.33
2017-08-07T06:12:24.725Z,66.23
2017-08-07T06:13:27.070Z,66.61
2017-08-07T06:14:28.970Z,66.71
2017-08-07T06:15:30.867Z,66.80
2017-08-07T06:16:45.032Z,66.90
2017-08-07T06:17:46.918Z,67.09
2017-08-07T06:18:48.811Z,67.19
2017-08-07T06:19:50.695Z,67.29
2017-08-07T06:20:52.523Z,67.19
2017-08-07T06:21:54.353Z,67.57
2017-08-07T06:22:56.239Z,67.47
2017-08-07T06:23:58.136Z,67.86
2017-08-07T06:25:00.032Z,69.11
2017-08-07T06:26:14.207Z,69.68
2017-08-07T06:27:16.118Z,69.40
2017-08-07T06:28:18.000Z,69.59
2017-08-07T06:29:19.887Z,69.20
2017-08-07T06:30:21.723Z,69.40
2017-08-07T06:31:23.556Z,68.73
2017-08-07T06:32:25.565Z,68.57
2017-08-07T06:33:27.439Z,68.47
2017-08-07T06:34:29.334Z,68.95
2017-08-07T06:35:43.499Z,68.37
2017-08-07T06:36:45.387Z,68.47
2017-08-07T06:37:47.275Z,68.57
2017-08-07T06:38:49.168Z,68.37
2017-08-07T06:39:50.999Z,67.61
2017-08-07T06:40:52.827Z,67.70
2017-08-07T06:41:54.715Z,67.41
2017-08-07T06:42:56.603Z,67.41
2017-08-07T06:43:58.493Z,67.51
2017-08-07T06:45:12.657Z,67.22
2017-08-07T06:46:14.544Z,66.84
2017-08-07T06:47:16.444Z,66.64
2017-08-07T06:48:18.331Z,66.93
2017-08-07T06:49:20.162Z,66.97
2017-08-07T06:50:21.993Z,66.58
2017-08-07T06:51:23.884Z,66.16
2017-08-07T06:52:25.772Z,65.11
2017-08-07T06:53:27.664Z,64.72
2017-08-07T06:54:41.833Z,64.63
2017-08-07T06:55:43.720Z,64.63
2017-08-07T06:56:45.614Z,64.66
2017-08-07T06:57:47.503Z,64.72
2017-08-07T06:58:49.333Z,64.85
2017-08-07T06:59:51.175Z,65.62
2017-08-07T07:00:53.023Z,65.05
2017-08-07T07:01:54.871Z,64.76
2017-08-07T07:02:56.698Z,64.18
2017-08-07T07:04:10.864Z,63.79
2017-08-07T07:05:12.753Z,63.99
2017-08-07T07:06:14.641Z,64.56
2017-08-07T07:07:16.545Z,64.66
2017-08-07T07:08:18.421Z,64.60
2017-08-07T07:09:20.263Z,64.76
2017-08-07T07:10:22.093Z,64.66
2017-08-07T07:11:23.982Z,64.89
2017-08-07T07:12:25.870Z,64.85
2017-08-07T07:13:40.046Z,64.60
2017-08-07T07:14:41.925Z,64.60
2017-08-07T07:15:43.813Z,64.22
2017-08-07T07:16:45.701Z,63.83
2017-08-07T07:17:47.531Z,62.77
2017-08-07T07:18:49.362Z,62.96
2017-08-07T07:19:51.790Z,63.06
2017-08-07T07:20:54.372Z,62.19
2017-08-07T07:21:56.254Z,62.48
2017-08-07T07:23:10.423Z,62.61
2017-08-07T07:24:12.316Z,62.32
2017-08-07T07:25:14.202Z,62.41
2017-08-07T07:26:16.090Z,62.23
2017-08-07T07:27:17.920Z,62.61
2017-08-07T07:28:19.755Z,62.23
2017-08-07T07:29:21.642Z,61.74
2017-08-07T07:30:23.531Z,60.69
2017-08-07T07:31:25.429Z,59.15
2017-08-07T07:32:39.597Z,59.15
2017-08-07T07:33:41.487Z,60.21
2017-08-07T07:34:43.373Z,60.49
2017-08-07T07:35:45.260Z,59.72
2017-08-07T07:36:47.103Z,59.24
2017-08-07T07:37:48.933Z,59.15
2017-08-07T07:38:50.821Z,59.53
2017-08-07T07:39:52.708Z,58.57
2017-08-07T07:40:54.598Z,57.90
2017-08-07T07:42:08.776Z,58.28
2017-08-07T07:43:10.665Z,57.73
2017-08-07T07:44:12.553Z,56.20
2017-08-07T07:45:14.440Z,56.38
2017-08-07T07:46:16.269Z,56.58
2017-08-07T07:47:18.101Z,55.71
2017-08-07T07:48:19.988Z,55.52
2017-08-07T07:49:21.878Z,55.04
2017-08-07T07:50:23.768Z,54.27
2017-08-07T07:51:37.933Z,54.94
2017-08-07T07:52:39.819Z,54.85
2017-08-07T07:53:41.709Z,54.58
2017-08-07T07:54:43.601Z,54.20
2017-08-07T07:55:45.428Z,54.97
2017-08-07T07:56:47.264Z,55.26
2017-08-07T07:57:49.150Z,54.97
2017-08-07T07:58:51.037Z,55.07
2017-08-07T07:59:52.929Z,54.97
2017-08-07T08:01:07.099Z,54.20
2017-08-07T08:02:08.986Z,53.72
2017-08-07T08:03:10.879Z,53.33
2017-08-07T08:04:12.771Z,53.14
2017-08-07T08:05:14.601Z,53.33
2017-08-07T08:06:16.431Z,52.85
2017-08-07T08:07:18.316Z,53.33
2017-08-07T08:08:20.216Z,53.72
2017-08-07T08:09:22.107Z,52.75
2017-08-07T08:10:36.274Z,51.50
2017-08-07T08:11:38.163Z,51.50
2017-08-07T08:12:40.053Z,51.60
2017-08-07T08:13:41.943Z,51.41
2017-08-07T08:14:43.777Z,51.50
2017-08-07T08:15:45.608Z,51.50
2017-08-07T08:16:47.503Z,51.70
2017-08-07T08:17:49.383Z,51.31
2017-08-07T08:18:51.278Z,50.95
2017-08-07T08:20:05.441Z,51.24
2017-08-07T08:21:07.330Z,50.66
2017-08-07T08:22:09.222Z,50.09
2017-08-07T08:23:11.113Z,49.02
2017-08-07T08:24:12.947Z,49.12
2017-08-07T08:25:14.780Z,47.19
2017-08-07T08:26:16.667Z,47.67
2017-08-07T08:27:18.567Z,48.35
2017-08-07T08:28:20.461Z,49.43
2017-08-07T08:29:34.627Z,48.66
2017-08-07T08:30:36.515Z,48.66
2017-08-07T08:31:38.404Z,48.47
2017-08-07T08:32:40.293Z,46.83
2017-08-07T08:33:42.138Z,46.15
2017-08-07T08:34:43.968Z,45.84
2017-08-07T08:35:45.858Z,47.51
2017-08-07T08:36:47.758Z,47.99
2017-08-07T08:37:49.647Z,46.06
2017-08-07T08:39:03.814Z,44.71
2017-08-07T08:40:05.704Z,44.71
2017-08-07T08:41:07.597Z,43.94
2017-08-07T08:42:09.488Z,43.96
2017-08-07T08:43:11.318Z,43.00
2017-08-07T08:44:13.154Z,43.17
2017-08-07T08:45:15.041Z,42.69
2017-08-07T08:46:16.936Z,41.05
2017-08-07T08:47:18.835Z,41.05
2017-08-07T08:48:32.995Z,42.21
2017-08-07T08:49:34.881Z,41.92
2017-08-07T08:50:36.774Z,42.02
2017-08-07T08:51:38.681Z,41.72
2017-08-07T08:52:40.491Z,40.66
2017-08-07T08:53:42.322Z,40.19
2017-08-07T08:54:44.213Z,39.99
2017-08-07T08:55:46.103Z,39.99
2017-08-07T08:56:47.994Z,40.09
2017-08-07T08:58:02.160Z,41.05
2017-08-07T08:59:04.047Z,40.57
2017-08-07T09:00:05.937Z,40.47
2017-08-07T09:01:07.830Z,40.57
2017-08-07T09:02:09.663Z,40.76
2017-08-07T09:03:11.494Z,41.34
2017-08-07T09:04:13.391Z,41.14
2017-08-07T09:05:15.278Z,40.37
2017-08-07T09:06:17.172Z,39.87
2017-08-07T09:07:31.339Z,39.87
2017-08-07T09:08:33.228Z,40.07
2017-08-07T09:09:35.119Z,40.16
2017-08-07T09:10:37.009Z,40.84
2017-08-07T09:11:38.853Z,41.80
2017-08-07T09:12:40.684Z,43.15
2017-08-07T09:13:42.575Z,43.34
2017-08-07T09:14:44.463Z,44.81
2017-08-07T09:15:46.357Z,45.29
2017-08-07T09:17:00.525Z,45.10
2017-08-07T09:18:02.419Z,44.59
2017-08-07T09:19:04.301Z,44.79
2017-08-07T09:20:06.189Z,44.81
2017-08-07T09:21:08.021Z,45.39
2017-08-07T09:22:09.855Z,45.29
2017-08-07T09:23:11.743Z,46.06
2017-08-07T09:24:13.632Z,46.35
2017-08-07T09:25:15.531Z,46.15
2017-08-07T09:26:29.699Z,45.89
2017-08-07T09:27:31.589Z,45.39
2017-08-07T09:28:33.475Z,46.37
2017-08-07T09:29:35.363Z,47.34
2017-08-07T09:30:37.224Z,47.53
2017-08-07T09:31:39.036Z,47.24
2017-08-07T09:32:40.926Z,47.07
2017-08-07T09:33:42.814Z,47.07
2017-08-07T09:34:44.717Z,46.69
2017-08-07T09:35:58.883Z,45.72
2017-08-07T09:37:00.775Z,45.43
2017-08-07T09:38:02.863Z,45.82
2017-08-07T09:39:04.756Z,46.20
2017-08-07T09:40:06.587Z,46.66
2017-08-07T09:41:08.415Z,46.66
2017-08-07T09:42:10.320Z,46.37
2017-08-07T09:43:12.205Z,45.99
2017-08-07T09:44:14.099Z,46.08
2017-08-07T09:45:28.262Z,46.08
2017-08-07T09:46:30.151Z,46.76
2017-08-07T09:47:32.043Z,47.34
2017-08-07T09:48:33.936Z,46.95
2017-08-07T09:49:35.760Z,47.07
2017-08-07T09:50:37.596Z,47.36
2017-08-07T09:51:39.483Z,47.27
2017-08-07T09:52:41.388Z,47.96
2017-08-07T09:53:43.270Z,47.67
2017-08-07T09:54:57.437Z,47.50
2017-08-07T09:55:59.328Z,46.83
2017-08-07T09:57:01.218Z,46.83
2017-08-07T09:58:03.104Z,46.17
2017-08-07T09:59:04.952Z,44.82
2017-08-07T10:00:06.812Z,43.74
2017-08-07T10:01:08.680Z,44.12
2017-08-07T10:02:10.568Z,43.93
2017-08-07T10:03:12.466Z,45.18
2017-08-07T10:04:26.682Z,45.28
2017-08-07T10:05:28.572Z,45.38
2017-08-07T10:06:30.462Z,45.67
2017-08-07T10:07:32.353Z,45.40
2017-08-07T10:08:34.198Z,45.40
2017-08-07T10:09:36.029Z,45.40
2017-08-07T10:10:37.931Z,45.11
2017-08-07T10:11:39.819Z,44.75
2017-08-07T10:12:41.720Z,44.43
2017-08-07T10:13:55.890Z,43.57
2017-08-07T10:14:57.778Z,43.28
2017-08-07T10:15:59.669Z,42.31
2017-08-07T10:17:01.557Z,43.54
2017-08-07T10:18:03.390Z,43.66
2017-08-07T10:19:05.221Z,43.76
2017-08-07T10:20:07.112Z,44.05
2017-08-07T10:21:09.006Z,44.73
2017-08-07T10:22:10.897Z,44.70
2017-08-07T10:23:25.067Z,44.90
2017-08-07T10:24:26.958Z,44.42
2017-08-07T10:25:28.851Z,44.22
2017-08-07T10:26:30.742Z,44.01
2017-08-07T10:27:32.574Z,44.22
2017-08-07T10:28:34.408Z,44.42
2017-08-07T10:29:36.297Z,44.80
2017-08-07T10:30:38.204Z,44.80
2017-08-07T10:31:40.095Z,45.38
2017-08-07T10:32:54.264Z,44.73
2017-08-07T10:33:56.160Z,44.05
2017-08-07T10:34:58.045Z,43.85
2017-08-07T10:35:59.936Z,43.57
2017-08-07T10:37:01.765Z,43.28
2017-08-07T10:38:03.601Z,43.47
2017-08-07T10:39:05.491Z,43.37
2017-08-07T10:40:07.380Z,43.47
2017-08-07T10:41:09.272Z,43.85
2017-08-07T10:42:23.440Z,43.57
2017-08-07T10:43:25.330Z,43.28
2017-08-07T10:44:27.225Z,43.35
2017-08-07T10:45:29.120Z,43.16
2017-08-07T10:46:30.950Z,43.93
2017-08-07T10:47:32.784Z,44.92
2017-08-07T10:48:34.672Z,45.40
2017-08-07T10:49:36.560Z,45.69
2017-08-07T10:50:38.452Z,45.33
2017-08-07T10:51:52.620Z,44.65
2017-08-07T10:52:54.509Z,44.84
2017-08-07T10:53:56.402Z,44.87
2017-08-07T10:54:58.301Z,45.16
2017-08-07T10:56:00.136Z,44.77
2017-08-07T10:57:01.965Z,44.56
2017-08-07T10:58:03.857Z,44.26
2017-08-07T10:59:05.746Z,44.36
2017-08-07T11:00:07.639Z,43.68
2017-08-07T11:01:21.818Z,43.78
2017-08-07T11:02:23.706Z,43.49
2017-08-07T11:03:25.599Z,43.37
2017-08-07T11:04:27.488Z,43.85
2017-08-07T11:05:29.332Z,43.85
2017-08-07T11:06:31.164Z,42.99
2017-08-07T11:07:33.055Z,43.37
2017-08-07T11:08:34.943Z,43.37
2017-08-07T11:09:36.841Z,43.47
2017-08-07T11:10:51.006Z,43.76
2017-08-07T11:11:52.897Z,43.66
2017-08-07T11:12:54.789Z,43.47
2017-08-07T11:13:56.680Z,43.30
2017-08-07T11:14:58.512Z,43.30
2017-08-07T11:16:00.346Z,43.68
2017-08-07T11:17:02.236Z,44.09
2017-08-07T11:18:04.124Z,44.19
2017-08-07T11:19:06.014Z,43.41
2017-08-07T11:20:20.182Z,43.05
2017-08-07T11:21:22.073Z,41.89
2017-08-07T11:22:23.973Z,41.00
2017-08-07T11:23:25.852Z,41.39
2017-08-07T11:24:27.696Z,41.29
2017-08-07T11:25:29.528Z,40.32
2017-08-07T11:26:31.421Z,41.29
2017-08-07T11:27:33.313Z,42.24
2017-08-07T11:28:35.251Z,41.08
2017-08-07T11:29:49.401Z,42.33
2017-08-07T11:30:51.291Z,41.66
2017-08-07T11:31:53.181Z,41.56
2017-08-07T11:32:55.073Z,41.94
2017-08-07T11:33:56.905Z,42.33
2017-08-07T11:34:58.737Z,41.94
2017-08-07T11:36:00.624Z,42.35
2017-08-07T11:37:02.535Z,41.09
2017-08-07T11:38:04.414Z,41.29
2017-08-07T11:39:18.588Z,41.85
2017-08-07T11:40:20.478Z,42.33
2017-08-07T11:41:22.369Z,42.91
2017-08-07T11:42:24.258Z,42.70
2017-08-07T11:43:26.104Z,42.21
2017-08-07T11:44:27.939Z,41.44
2017-08-07T11:45:29.829Z,42.31
2017-08-07T11:46:31.720Z,42.21
2017-08-07T11:47:33.617Z,41.85
2017-08-07T11:48:47.786Z,41.46
2017-08-07T11:49:49.674Z,42.14
2017-08-07T11:50:51.565Z,41.85
2017-08-07T11:51:53.463Z,41.87
2017-08-07T11:52:55.306Z,41.09
2017-08-07T11:53:57.138Z,41.09
2017-08-07T11:54:59.030Z,41.58
2017-08-07T11:56:00.920Z,42.16
2017-08-07T11:57:02.813Z,42.16
2017-08-07T11:58:17.030Z,41.67
2017-08-07T11:59:18.922Z,41.79
2017-08-07T12:00:20.812Z,42.08
2017-08-07T12:01:22.705Z,42.47
2017-08-07T12:02:24.541Z,42.20
2017-08-07T12:03:26.374Z,42.00
2017-08-07T12:04:28.267Z,41.42
2017-08-07T12:05:30.157Z,41.45
2017-08-07T12:06:32.050Z,40.86
2017-08-07T12:07:46.218Z,41.25
2017-08-07T12:08:48.109Z,40.77
2017-08-07T12:09:50.002Z,40.19
2017-08-07T12:10:51.894Z,39.90
2017-08-07T12:11:53.728Z,39.97
2017-08-07T12:12:55.563Z,39.61
2017-08-07T12:13:57.455Z,39.11
2017-08-07T12:14:59.346Z,39.49
2017-08-07T12:16:01.238Z,39.97
2017-08-07T12:17:15.409Z,40.63
2017-08-07T12:18:17.299Z,40.25
2017-08-07T12:19:19.192Z,39.76
2017-08-07T12:20:21.083Z,40.25
2017-08-07T12:21:22.929Z,40.53
2017-08-07T12:22:24.761Z,40.25
2017-08-07T12:23:26.655Z,40.15
2017-08-07T12:24:28.544Z,40.05
2017-08-07T12:25:30.438Z,40.25
2017-08-07T12:26:44.608Z,40.15
2017-08-07T12:27:46.497Z,40.25
2017-08-07T12:28:48.388Z,40.44
2017-08-07T12:29:50.279Z,40.53
2017-08-07T12:30:52.109Z,40.05
2017-08-07T12:31:53.942Z,39.95
2017-08-07T12:32:55.835Z,39.76
2017-08-07T12:33:57.729Z,39.18
2017-08-07T12:34:59.622Z,39.09
2017-08-07T12:36:13.792Z,39.86
2017-08-07T12:37:15.680Z,40.15
2017-08-07T12:38:17.581Z,39.95
2017-08-07T12:39:19.471Z,40.53
2017-08-07T12:40:21.304Z,41.31
2017-08-07T12:41:23.137Z,41.50
2017-08-07T12:42:25.032Z,41.91
2017-08-07T12:43:26.917Z,42.10
2017-08-07T12:44:28.812Z,41.14
2017-08-07T12:45:43.036Z,40.36
2017-08-07T12:46:44.919Z,38.93
2017-08-07T12:47:46.821Z,38.25
2017-08-07T12:48:48.712Z,37.36
2017-08-07T12:49:50.546Z,37.46
2017-08-07T12:50:52.377Z,38.13
2017-08-07T12:51:54.270Z,38.62
2017-08-07T12:52:56.158Z,39.78
2017-08-07T12:53:58.051Z,40.15
2017-08-07T12:55:12.220Z,40.34
2017-08-07T12:56:14.110Z,40.07
2017-08-07T12:57:16.001Z,40.34
2017-08-07T12:58:17.891Z,40.46
2017-08-07T12:59:19.722Z,41.14
2017-08-07T13:00:21.557Z,40.56
2017-08-07T13:01:23.448Z,40.17
2017-08-07T13:02:25.342Z,40.17
2017-08-07T13:03:27.235Z,40.19
2017-08-07T13:04:41.405Z,40.09
2017-08-07T13:05:43.294Z,39.90
2017-08-07T13:06:45.186Z,40.19
2017-08-07T13:07:47.074Z,40.28
2017-08-07T13:08:48.905Z,40.11
2017-08-07T13:09:50.739Z,40.01
2017-08-07T13:10:52.627Z,40.21
2017-08-07T13:11:54.519Z,40.11
2017-08-07T13:12:56.412Z,39.82
2017-08-07T13:14:10.582Z,39.53
2017-08-07T13:15:12.479Z,39.14
2017-08-07T13:16:14.384Z,39.04
2017-08-07T13:17:16.271Z,38.95
2017-08-07T13:18:18.115Z,38.46
2017-08-07T13:19:19.950Z,37.49
2017-08-07T13:20:21.888Z,37.21
2017-08-07T13:21:23.757Z,36.91
2017-08-07T13:22:25.650Z,36.82
2017-08-07T13:23:40.027Z,36.62
2017-08-07T13:24:41.916Z,37.11
2017-08-07T13:25:43.807Z,37.11
2017-08-07T13:26:45.697Z,37.98
2017-08-07T13:27:47.535Z,37.88
2017-08-07T13:28:49.368Z,38.07
2017-08-07T13:29:51.260Z,36.91
2017-08-07T13:30:53.149Z,36.33
2017-08-07T13:31:55.044Z,36.06
2017-08-07T13:33:09.216Z,36.83
2017-08-07T13:34:11.104Z,36.43